Terminal Aerodrome Forecast
Issued by NWS Wilmington, OH

Current Version | Previous Version | Text Only | Print | Product List | Glossary Off
Versions: 1 2 3 4 5 6 7 8 9 10 11 12 13 14 15 16 17 18 19 20 21 22 23 24 25 26 27 28 29 30

000
FTUS41 KILN 051736
TAFCVG
TAF
KCVG 051736Z 0518/0624 02004KT P6SM SCT018 BKN250
     FM052100 06004KT P6SM BKN250
     FM060200 07008KT P6SM SCT025 BKN080
     FM061000 08008KT P6SM -RA SCT008 OVC025
     FM061300 08006KT P6SM VCSH OVC008
     FM061800 29008KT P6SM OVC012=

USA.gov is the U.S. government's official web portal to all federal, state and local government web resources and services.